Terminal Aerodrome Forecast
Issued by NWS

Home | Current Version | Previous Version | Text Only | Print | Product List | Glossary On
Versions: 1 2 3 4 5 6 7 8 9 10 11 12 13 14 15 16 17 18 19
103
FTUS46 KPDT 271323 AAB
TAFYKM
TAF AMD
KYKM 271323Z 2713/2812 27006KT P6SM SCT001 SCT150
      TEMPO 2713/2716 6SM BR OVC001
     FM271700 26005KT P6SM SCT090 BKN120
     FM272100 28011KT P6SM SCT090 SCT120
     FM280300 28006KT P6SM FEW100 SCT200=

USA.gov is the U.S. government's official web portal to all federal, state and local government web resources and services.